Hlavní strana
METAR-TAF:

METAR-TAF

Letiště :

Auburn, Alabama, Spojené státy americké

zeměpisná šířka: 32-37N, zeměpisná délka: 085-26W, výška: 236 m

Aktuální stav počasí

Zpráva byla vytvořena před 1 hodinou a 13 minutami, v 00:56 UTC
vítr z různých směrů 6 kt
Teplota 13°C
Vlhkost vzduchu 100%
Tlak 1022 hPa
Viditelnost: 16.1 km
Oblačno až skoro zataženo ve výšce 1900 ft
Oblačno až skoro zataženo ve výšce 3900 ft
Zataženo ve výšce 4600 ft

METAR: KAUO 190056Z AUTO VRB06KT 10SM BKN019 BKN039 OVC046 13/13 A3017 RMK AO2 RAB39E49 SLP242 P0000 T01330128

Čas: 20:09 (02:09 UTC)


TAF: chybějící

Stav a předpovědi počasí z více než 4 000 letišť (zprávy METAR a TAF).

Červené a žluté tečky na mapě představují dostupné meteorologické stanice.

Když kurzor umístíte na tečku, zobrazí se název stanice.

Pak kliknutím zobrazíte stav a předpověď počasí.

Chcete-li změnit mapu, kliknutím na zelené tlačítko se znaménkem +mapu přiblížíte, kliknutím na zelené tlačítko se znaménkem – mapu oddálíte a kliknutím na zelené šipky přejdete na sousední mapy.


METAR-TAF: